createdAt,value
2023-04-25T04:37:15.968Z,83.37
2023-04-25T04:40:18.846Z,83.37
2023-04-25T04:43:21.412Z,87.22
2023-04-25T04:46:25.823Z,87.50
2023-04-25T04:49:28.628Z,87.25
2023-04-25T04:52:33.787Z,88.42
2023-04-25T04:55:36.555Z,89.95
2023-04-25T04:58:39.378Z,91.32
2023-04-25T05:01:42.151Z,90.42
2023-04-25T05:04:44.789Z,91.83
2023-04-25T05:07:47.686Z,92.88
2023-04-25T05:10:50.301Z,93.04
2023-04-25T05:13:53.754Z,93.49
2023-04-25T05:16:57.191Z,95.30
2023-04-25T05:20:00.234Z,95.00
2023-04-25T05:23:02.870Z,95.62
2023-04-25T05:26:05.443Z,95.09
2023-04-25T05:29:08.108Z,94.37
2023-04-25T05:32:10.809Z,95.86
2023-04-25T05:35:13.502Z,95.22
2023-04-25T05:38:16.253Z,96.48
2023-04-25T05:41:18.829Z,95.96
2023-04-25T05:44:21.376Z,97.33
2023-04-25T05:47:23.983Z,97.03
2023-04-25T05:50:26.944Z,97.46
2023-04-25T05:53:39.999Z,97.44
2023-04-25T05:56:42.519Z,97.08
2023-04-25T05:59:45.111Z,97.69
2023-04-25T06:02:47.844Z,100.00
2023-04-25T06:05:50.766Z,100.00
2023-04-25T06:08:56.138Z,100.00
2023-04-25T06:12:02.745Z,100.00
2023-04-25T06:15:16.466Z,100.00
2023-04-25T06:18:29.109Z,100.00
2023-04-25T06:21:32.657Z,100.00
2023-04-25T06:24:35.787Z,100.00
2023-04-25T06:27:38.556Z,100.00
2023-04-25T06:30:41.597Z,100.00
2023-04-25T06:33:44.173Z,100.00
2023-04-25T06:36:46.857Z,100.00
2023-04-25T06:39:49.442Z,100.00
2023-04-25T06:42:52.033Z,100.00
2023-04-25T06:45:55.860Z,100.00
2023-04-25T06:48:58.393Z,100.00
2023-04-25T06:52:00.886Z,100.00
2023-04-25T06:55:03.995Z,100.00
2023-04-25T06:58:06.569Z,100.00
2023-04-25T07:01:09.131Z,100.00
2023-04-25T07:04:12.934Z,100.00
2023-04-25T07:07:15.602Z,100.00
2023-04-25T07:10:21.909Z,100.00
2023-04-25T07:13:24.339Z,100.00
2023-04-25T07:16:27.377Z,100.00
2023-04-25T07:19:30.951Z,100.00
2023-04-25T07:22:33.911Z,100.00
2023-04-25T07:25:36.418Z,100.00
2023-04-25T07:28:39.011Z,100.00
2023-04-25T07:31:41.599Z,100.00
2023-04-25T07:34:44.260Z,100.00
2023-04-25T07:37:46.869Z,100.00
2023-04-25T07:40:50.388Z,100.00
2023-04-25T07:43:59.121Z,100.00
2023-04-25T07:47:04.286Z,100.00
2023-04-25T07:50:07.888Z,100.00
2023-04-25T07:53:10.698Z,100.00
2023-04-25T07:56:13.338Z,100.00
2023-04-25T07:59:16.067Z,100.00
2023-04-25T08:02:18.650Z,97.63
2023-04-25T08:05:22.944Z,99.16
2023-04-25T08:08:26.138Z,97.72
2023-04-25T08:11:28.793Z,97.41
2023-04-25T08:14:36.751Z,96.57
2023-04-25T08:17:39.613Z,95.80
2023-04-25T08:20:42.320Z,95.63
2023-04-25T08:23:44.876Z,94.82
2023-04-25T08:26:47.421Z,94.84
2023-04-25T08:29:50.249Z,92.60
2023-04-25T08:32:52.794Z,89.58
2023-04-25T08:35:55.911Z,92.83
2023-04-25T08:38:59.518Z,87.91
2023-04-25T08:42:03.138Z,88.22
2023-04-25T08:45:07.233Z,87.49
2023-04-25T08:48:14.420Z,86.96
2023-04-25T08:51:23.265Z,85.73
2023-04-25T08:54:34.394Z,83.11
2023-04-25T08:57:39.382Z,84.26
2023-04-25T09:00:42.082Z,81.36
2023-04-25T09:03:46.049Z,83.39
2023-04-25T09:06:49.094Z,80.10
2023-04-25T09:09:51.643Z,78.43
2023-04-25T09:13:27.436Z,78.64
2023-04-25T09:16:30.057Z,80.17
2023-04-25T09:22:39.871Z,77.93
2023-04-25T09:25:44.485Z,74.56
2023-04-25T09:28:49.053Z,75.75
2023-04-25T09:31:51.817Z,76.85
2023-04-25T09:34:55.834Z,73.72
2023-04-25T09:37:58.425Z,74.73
2023-04-25T09:41:01.914Z,73.35
2023-04-25T09:44:04.939Z,71.46
2023-04-25T09:47:12.310Z,72.45
2023-04-25T09:50:16.439Z,74.01
2023-04-25T09:53:18.928Z,73.09
2023-04-25T09:56:21.605Z,72.21
2023-04-25T09:59:24.240Z,71.02
2023-04-25T10:02:27.771Z,71.93
2023-04-25T10:05:31.362Z,70.90
2023-04-25T10:08:37.308Z,70.98
2023-04-25T10:11:39.859Z,69.40
2023-04-25T10:14:42.407Z,71.36
2023-04-25T10:17:45.076Z,68.26
2023-04-25T10:20:47.672Z,69.47
2023-04-25T10:23:50.645Z,68.69
2023-04-25T10:26:53.432Z,68.68
2023-04-25T10:30:06.232Z,69.80
2023-04-25T10:33:19.791Z,70.53
2023-04-25T10:36:23.769Z,69.93
2023-04-25T10:39:28.318Z,70.54
2023-04-25T10:42:31.159Z,69.51
2023-04-25T10:45:54.797Z,69.84
2023-04-25T10:49:01.532Z,70.98
2023-04-25T10:52:26.743Z,73.05
2023-04-25T10:55:29.373Z,70.44
2023-04-25T10:58:32.207Z,70.75
2023-04-25T11:01:40.156Z,72.77
2023-04-25T11:08:06.226Z,74.01
2023-04-25T11:11:20.752Z,72.14
2023-04-25T11:14:23.550Z,72.64
2023-04-25T11:17:26.778Z,72.43
2023-04-25T11:20:29.966Z,72.96
2023-04-25T11:23:32.652Z,72.03
2023-04-25T11:26:35.240Z,72.75
2023-04-25T11:29:38.024Z,69.05
2023-04-25T11:32:42.858Z,69.84
2023-04-25T11:35:45.415Z,69.22
2023-04-25T11:38:47.964Z,68.39
2023-04-25T11:41:51.185Z,66.45
2023-04-25T11:44:54.038Z,65.97
2023-04-25T11:47:57.033Z,64.42
2023-04-25T11:51:02.067Z,63.46
2023-04-25T11:54:04.598Z,64.53
2023-04-25T11:57:07.897Z,63.43
2023-04-25T12:00:18.104Z,64.35
2023-04-25T12:03:21.612Z,63.12
2023-04-25T12:06:30.262Z,63.22
2023-04-25T12:09:33.909Z,62.77
2023-04-25T12:12:36.816Z,62.55
2023-04-25T12:15:41.873Z,61.80
2023-04-25T12:18:44.423Z,63.06
2023-04-25T12:21:57.368Z,62.64
2023-04-25T12:25:02.138Z,62.14
2023-04-25T12:28:20.802Z,63.47
2023-04-25T12:31:23.854Z,60.92
2023-04-25T12:34:26.449Z,61.05
2023-04-25T12:37:29.895Z,60.35
2023-04-25T12:40:32.716Z,61.36
2023-04-25T12:43:35.699Z,58.19
2023-04-25T12:46:38.977Z,56.78
2023-04-25T12:49:41.736Z,59.02
2023-04-25T12:52:45.139Z,58.76
2023-04-25T12:55:47.925Z,59.42
2023-04-25T12:58:51.025Z,59.14
2023-04-25T13:01:54.201Z,61.90
2023-04-25T13:04:56.858Z,60.13
2023-04-25T13:08:00.496Z,59.14
2023-04-25T13:11:03.134Z,59.32
2023-04-25T13:14:05.999Z,57.93
2023-04-25T13:17:08.516Z,54.40
2023-04-25T13:20:11.507Z,54.34
2023-04-25T13:23:14.122Z,54.83
2023-04-25T13:26:17.399Z,53.35
2023-04-25T13:29:20.110Z,54.83
2023-04-25T13:32:22.678Z,55.37
2023-04-25T13:35:25.768Z,55.47
2023-04-25T13:38:28.343Z,55.77
2023-04-25T13:41:31.021Z,57.43
2023-04-25T13:44:33.677Z,57.05
2023-04-25T13:47:36.448Z,57.22
2023-04-25T13:50:39.431Z,54.45
2023-04-25T13:53:42.174Z,53.50
2023-04-25T13:56:44.768Z,55.20
2023-04-25T13:59:47.686Z,51.69
2023-04-25T14:02:50.936Z,50.74
2023-04-25T14:05:53.644Z,52.44
2023-04-25T14:08:57.732Z,52.32
2023-04-25T14:12:00.589Z,49.67
2023-04-25T14:15:03.434Z,51.01
2023-04-25T14:18:07.537Z,49.57
2023-04-25T14:21:11.028Z,51.37
2023-04-25T14:24:14.492Z,50.63
2023-04-25T14:27:17.346Z,51.18
2023-04-25T14:30:20.363Z,50.41
2023-04-25T14:33:23.183Z,52.38
2023-04-25T14:36:27.535Z,50.07
2023-04-25T14:39:30.094Z,50.29
2023-04-25T14:42:34.097Z,48.88
2023-04-25T14:45:36.706Z,49.13
2023-04-25T14:48:39.479Z,48.37
2023-04-25T14:51:42.048Z,48.83
2023-04-25T14:54:44.580Z,48.99
2023-04-25T14:57:47.149Z,49.17
2023-04-25T15:00:49.837Z,50.28
2023-04-25T15:03:53.289Z,49.73
2023-04-25T15:06:56.536Z,50.37
2023-04-25T15:09:59.180Z,50.40
2023-04-25T15:13:01.910Z,50.32
2023-04-25T15:16:04.763Z,51.51
2023-04-25T15:19:07.637Z,50.58
